Time;durP1;ratioP1;P1;durP2;ratioP2;P2;SDS_P1;SDS_P2;PMS_P1;PMS_P2;Temp;Humidity;BMP_temperature;BMP_pressure;BME280_temperature;BME280_humidity;BME280_pressure;Samples;Min_cycle;Max_cycle;Signal;HPM_P1;HPM_P2
2023/01/07 00:01:23;;;;;;;38.85;22.67;;;10.50;99.90;;;;;;5023662;28;20051;-65
2023/01/07 00:03:50;;;;;;;41.23;23.70;;;10.60;99.90;;;;;;5036831;28;20053;-64
2023/01/07 00:06:26;;;;;;;39.58;22.98;;;;;;;;;;5063844;28;20044;-67
2023/01/07 00:08:53;;;;;;;38.38;21.42;;;;;;;;;;5070070;28;20072;-65
2023/01/07 00:11:20;;;;;;;37.03;22.42;;;;;;;;;;5069631;28;20052;-65
2023/01/07 00:13:51;;;;;;;39.03;22.92;;;10.50;99.90;;;;;;5069330;28;20479;-65
2023/01/07 00:16:18;;;;;;;36.45;22.52;;;10.60;99.90;;;;;;5051727;28;20115;-65
2023/01/07 00:18:45;;;;;;;38.13;21.80;;;10.70;99.90;;;;;;5069631;28;20048;-66
2023/01/07 00:21:13;;;;;;;40.38;24.08;;;;;;;;;;5047560;28;20045;-65
2023/01/07 00:23:39;;;;;;;37.75;22.20;;;;;;;;;;5066391;28;20498;-65
2023/01/07 00:26:07;;;;;;;38.67;22.08;;;;;;;;;;5051016;28;20406;-65
2023/01/07 00:28:34;;;;;;;40.92;23.27;;;;;;;;;;5069649;28;20123;-64
2023/01/07 00:31:01;;;;;;;41.30;23.67;;;10.70;99.90;;;;;;5050975;28;20044;-65
2023/01/07 00:33:27;;;;;;;34.90;21.08;;;;;;;;;;5068963;28;20503;-65
2023/01/07 00:36:00;;;;;;;39.00;22.83;;;;;;;;;;5051180;28;20049;-65
2023/01/07 00:38:26;;;;;;;35.83;21.55;;;;;;;;;;5069222;28;20363;-65
2023/01/07 00:40:52;;;;;;;40.90;22.70;;;;;;;;;;5069141;28;20048;-65
2023/01/07 00:43:18;;;;;;;41.35;22.92;;;;;;;;;;5068857;28;20040;-65
2023/01/07 00:45:44;;;;;;;39.42;22.65;;;;;;;;;;5050927;28;20643;-65
2023/01/07 00:48:10;;;;;;;43.22;24.40;;;;;;;;;;5068723;28;20049;-65
2023/01/07 00:50:36;;;;;;;36.97;22.25;;;;;;;;;;5050756;28;20402;-65
2023/01/07 00:53:03;;;;;;;42.08;24.13;;;;;;;;;;5068532;28;20501;-65
2023/01/07 00:55:29;;;;;;;39.30;23.00;;;;;;;;;;5050308;28;20395;-66
2023/01/07 00:57:55;;;;;;;40.75;23.40;;;;;;;;;;5050494;28;20047;-65
2023/01/07 01:00:22;;;;;;;39.67;23.40;;;;;;;;;;5051242;28;20040;-65
2023/01/07 01:02:48;;;;;;;41.95;24.00;;;10.80;99.90;;;;;;5068805;28;20556;-65
2023/01/07 01:05:15;;;;;;;41.40;24.63;;;;;;;;;;5050604;28;20509;-65
2023/01/07 01:07:41;;;;;;;39.42;23.75;;;;;;;;;;5050463;28;20167;-65
2023/01/07 01:10:10;;;;;;;38.67;23.38;;;11.00;99.90;;;;;;5068571;28;20037;-65
2023/01/07 01:12:36;;;;;;;38.83;22.73;;;11.00;99.90;;;;;;5063333;28;20029;-65
2023/01/07 01:15:03;;;;;;;37.85;23.60;;;;;;;;;;5050420;28;20213;-65
2023/01/07 01:17:29;;;;;;;37.53;22.95;;;;;;;;;;5050611;28;20059;-65
2023/01/07 01:19:55;;;;;;;42.60;24.52;;;;;;;;;;5050736;28;20044;-66
2023/01/07 01:22:20;;;;;;;40.42;25.55;;;10.90;99.90;;;;;;5068720;28;20514;-65
2023/01/07 01:24:46;;;;;;;39.33;24.65;;;11.20;99.90;;;;;;5050924;28;20083;-65
2023/01/07 01:27:12;;;;;;;39.50;23.10;;;;;;;;;;5050682;28;20498;-65
2023/01/07 01:29:38;;;;;;;38.80;23.77;;;;;;;;;;5068394;28;20494;-66
2023/01/07 01:32:04;;;;;;;36.17;24.83;;;;;;;;;;5068303;28;20056;-65
2023/01/07 01:34:30;;;;;;;37.97;24.48;;;;;;;;;;5015284;28;20086;-66
2023/01/07 01:36:56;;;;;;;40.38;24.17;;;11.00;99.90;;;;;;5040980;28;20513;-65
2023/01/07 01:39:22;;;;;;;36.53;23.27;;;11.00;99.90;;;;;;5068114;28;20032;-65
2023/01/07 01:41:48;;;;;;;36.38;23.27;;;;;;;;;;5050547;28;20043;-65
2023/01/07 01:44:29;;;;;;;34.83;22.83;;;;;;;;;;5049979;28;20498;-65
2023/01/07 01:46:55;;;;;;;35.95;21.77;;;;;;;;;;5050272;28;20514;-65
2023/01/07 01:49:35;;;;;;;34.97;23.13;;;11.10;99.90;;;;;;5068056;28;20043;-66
2023/01/07 01:52:09;;;;;;;33.97;20.83;;;;;;;;;;5049796;28;20109;-65
2023/01/07 01:54:35;;;;;;;33.58;21.80;;;;;;;;;;5049513;28;20058;-66
2023/01/07 01:57:03;;;;;;;32.92;22.88;;;;;;;;;;5067564;28;20084;-65
2023/01/07 01:59:31;;;;;;;32.53;22.15;;;;;;;;;;5067567;28;20127;-65
2023/01/07 02:01:57;;;;;;;36.75;23.48;;;11.20;99.90;;;;;;5067611;28;20036;-65
2023/01/07 02:04:25;;;;;;;35.97;23.83;;;;;;;;;;5067503;28;20521;-65
2023/01/07 02:06:54;;;;;;;30.73;21.52;;;;;;;;;;5049322;28;20094;-65
2023/01/07 02:09:20;;;;;;;29.80;21.45;;;;;;;;;;5049400;28;20379;-65
2023/01/07 02:11:51;;;;;;;38.88;25.38;;;;;;;;;;5049063;28;20044;-65
2023/01/07 02:14:36;;;;;;;34.15;22.52;;;;;;;;;;5049196;28;20049;-66
2023/01/07 02:17:17;;;;;;;35.42;23.05;;;;;;;;;;5067219;28;20047;-65
2023/01/07 02:19:55;;;;;;;31.75;22.48;;;;;;;;;;5048932;28;20123;-66
2023/01/07 02:22:40;;;;;;;35.17;23.35;;;;;;;;;;5053469;28;20040;-65
2023/01/07 02:25:10;;;;;;;29.92;21.88;;;;;;;;;;5049236;28;20044;-65
2023/01/07 02:27:49;;;;;;;31.63;23.70;;;;;;;;;;5049230;28;20052;-64
2023/01/07 02:30:15;;;;;;;32.67;22.83;;;;;;;;;;5061101;28;20494;-65
2023/01/07 02:32:59;;;;;;;34.72;23.17;;;;;;;;;;5067465;28;20044;-66
2023/01/07 02:35:36;;;;;;;32.25;23.85;;;;;;;;;;5067160;28;20048;-65
2023/01/07 02:38:02;;;;;;;;;;;;;;;;;;5049073;28;20052;-65
2023/01/07 02:40:46;;;;;;;31.75;22.67;;;;;;;;;;5048888;28;19927;-65
2023/01/07 02:43:24;;;;;;;31.67;22.00;;;;;;;;;;5034998;28;20397;-65
2023/01/07 02:46:09;;;;;;;31.17;22.27;;;;;;;;;;5048637;28;20055;-66
2023/01/07 02:48:36;;;;;;;34.08;22.65;;;;;;;;;;5055074;28;20440;-65
2023/01/07 02:51:02;;;;;;;29.55;22.35;;;;;;;;;;5066462;28;20039;-65
2023/01/07 02:53:28;;;;;;;30.45;21.55;;;;;;;;;;5066552;28;20049;-67
2023/01/07 02:56:06;;;;;;;28.80;22.95;;;;;;;;;;5066729;28;20032;-64
2023/01/07 02:58:51;;;;;;;27.10;21.10;;;;;;;;;;5035039;28;20131;-65
2023/01/07 03:01:17;;;;;;;28.92;21.55;;;;;;;;;;5048627;28;20040;-65
2023/01/07 03:03:50;;;;;;;25.10;20.33;;;;;;;;;;5067133;28;20044;-65
2023/01/07 03:06:35;;;;;;;26.65;19.92;;;;;;;;;;5048455;28;20053;-65
2023/01/07 03:09:21;;;;;;;26.55;19.27;;;11.10;99.90;;;;;;5055294;28;20036;-66
2023/01/07 03:11:56;;;;;;;28.75;19.77;;;;;;;;;;5066335;28;20040;-65
2023/01/07 03:14:26;;;;;;;25.85;19.60;;;;;;;;;;5048136;28;20132;-65
2023/01/07 03:16:53;;;;;;;27.42;19.92;;;;;;;;;;5048340;28;20459;-65
2023/01/07 03:19:22;;;;;;;24.35;19.05;;;;;;;;;;5052072;28;20430;-65
2023/01/07 03:21:48;;;;;;;26.42;19.77;;;;;;;;;;5052223;28;20688;-64
2023/01/07 03:24:15;;;;;;;24.13;18.23;;;;;;;;;;5070253;28;20423;-65
2023/01/07 03:26:43;;;;;;;27.60;19.15;;;;;;;;;;5069291;28;20095;-65
2023/01/07 03:29:11;;;;;;;23.92;18.42;;;;;;;;;;5051527;28;20097;-65
2023/01/07 03:31:41;;;;;;;26.17;19.20;;;;;;;;;;5048205;28;20075;-65
2023/01/07 03:34:12;;;;;;;27.73;20.25;;;;;;;;;;5036047;28;20518;-65
2023/01/07 03:36:52;;;;;;;25.80;18.30;;;11.00;99.90;;;;;;5047637;28;20040;-64
2023/01/07 03:39:22;;;;;;;26.58;18.77;;;;;;;;;;5052251;28;20508;-65
2023/01/07 03:44:35;;;;;;;24.10;18.13;;;11.00;99.90;;;;;;5069999;28;20048;-65
2023/01/07 03:47:02;;;;;;;27.95;18.77;;;11.10;99.90;;;;;;5035027;28;20048;-65
2023/01/07 03:49:28;;;;;;;25.42;18.48;;;;;;;;;;5032185;28;20088;-65
2023/01/07 03:51:54;;;;;;;27.40;18.65;;;;;;;;;;5049523;28;20037;-65
2023/01/07 03:54:22;;;;;;;28.30;19.90;;;;;;;;;;5038255;28;20127;-65
2023/01/07 03:56:48;;;;;;;24.70;16.58;;;;;;;;;;5051659;28;20059;-65
2023/01/07 03:59:14;;;;;;;26.95;18.33;;;;;;;;;;5069475;28;20055;-66
2023/01/07 04:01:40;;;;;;;29.77;18.38;;;;;;;;;;5051523;28;20048;-65
2023/01/07 04:04:05;;;;;;;25.48;18.65;;;11.00;99.90;;;;;;5052602;28;20049;-65
2023/01/07 04:06:31;;;;;;;24.67;17.60;;;;;;;;;;5040172;28;20490;-65
2023/01/07 04:08:57;;;;;;;26.98;18.30;;;;;;;;;;5055417;28;20047;-65
2023/01/07 04:11:23;;;;;;;25.20;17.45;;;;;;;;;;5069332;28;20041;-65
2023/01/07 04:13:49;;;;;;;25.30;17.73;;;;;;;;;;5069223;28;20105;-65
2023/01/07 04:16:15;;;;;;;24.63;17.05;;;;;;;;;;5051212;28;20102;-65
2023/01/07 04:18:41;;;;;;;27.35;17.25;;;;;;;;;;5051150;28;20055;-65
2023/01/07 04:21:06;;;;;;;25.90;15.95;;;11.00;99.90;;;;;;5049539;28;20110;-65
2023/01/07 04:23:32;;;;;;;25.05;17.88;;;;;;;;;;5069119;28;20131;-65
2023/01/07 04:25:58;;;;;;;25.02;15.82;;;;;;;;;;5069242;28;20090;-65
2023/01/07 04:28:24;;;;;;;22.98;16.83;;;;;;;;;;5068291;28;20410;-65
2023/01/07 04:30:50;;;;;;;26.80;16.05;;;;;;;;;;5050551;28;20056;-65
2023/01/07 04:33:16;;;;;;;22.90;16.90;;;11.10;99.90;;;;;;5068757;28;20048;-65
2023/01/07 04:35:45;;;;;;;24.02;15.13;;;;;;;;;;5068914;28;20489;-66
2023/01/07 04:38:11;;;;;;;20.20;15.73;;;;;;;;;;5036822;28;20055;-65
2023/01/07 04:40:37;;;;;;;23.33;16.17;;;;;;;;;;5068961;28;20383;-65
2023/01/07 04:43:03;;;;;;;21.33;14.70;;;;;;;;;;5050476;28;20051;-65
2023/01/07 04:45:29;;;;;;;20.52;14.98;;;;;;;;;;5068854;28;20036;-65
2023/01/07 04:47:55;;;;;;;24.70;15.88;;;;;;;;;;5068954;28;20047;-65
2023/01/07 04:50:21;;;;;;;18.88;14.27;;;;;;;;;;5050759;28;20489;-64
2023/01/07 04:52:47;;;;;;;21.80;14.43;;;;;;;;;;5050882;28;20486;-65
2023/01/07 04:55:13;;;;;;;21.63;14.63;;;11.00;99.90;;;;;;5069091;28;20052;-65
2023/01/07 04:57:39;;;;;;;21.90;15.25;;;;;;;;;;5051135;28;20626;-66
2023/01/07 05:00:06;;;;;;;19.00;14.20;;;;;;;;;;5069321;28;20126;-66
2023/01/07 05:02:31;;;;;;;20.75;14.18;;;10.90;99.90;;;;;;5051043;28;20076;-65
2023/01/07 05:04:57;;;;;;;19.27;13.25;;;;;;;;;;5068971;28;20131;-65
2023/01/07 05:07:23;;;;;;;21.08;14.02;;;;;;;;;;5068537;28;20051;-65
2023/01/07 05:09:49;;;;;;;20.33;12.85;;;;;;;;;;5050813;28;20109;-66
2023/01/07 05:12:15;;;;;;;20.73;13.15;;;;;;;;;;5068570;28;20529;-65
2023/01/07 05:14:41;;;;;;;19.45;14.48;;;;;;;;;;5050492;28;20182;-65
2023/01/07 05:17:07;;;;;;;16.77;11.88;;;10.90;99.90;;;;;;5050402;28;20448;-65
2023/01/07 05:19:33;;;;;;;18.80;12.40;;;;;;;;;;5068000;28;20036;-65
2023/01/07 05:21:59;;;;;;;19.80;12.52;;;;;;;;;;5050028;28;20048;-65
2023/01/07 05:24:25;;;;;;;18.08;11.18;;;;;;;;;;5049742;28;20413;-66
2023/01/07 05:26:51;;;;;;;15.70;11.15;;;;;;;;;;5067836;28;20116;-65
2023/01/07 05:29:17;;;;;;;14.95;10.93;;;;;;;;;;5067926;28;20028;-66
2023/01/07 05:31:42;;;;;;;15.50;10.32;;;10.90;99.90;;;;;;5049549;28;20056;-65
2023/01/07 05:34:08;;;;;;;15.05;11.73;;;;;;;;;;5067421;28;20434;-65
2023/01/07 05:36:34;;;;;;;17.67;11.55;;;;;;;;;;5046507;28;20469;-65
2023/01/07 05:39:00;;;;;;;14.90;10.95;;;;;;;;;;5047626;28;20047;-65
2023/01/07 05:41:26;;;;;;;16.67;11.13;;;;;;;;;;5030029;28;20148;-65
2023/01/07 05:43:52;;;;;;;15.60;10.73;;;;;;;;;;5067614;28;20041;-65
2023/01/07 05:46:18;;;;;;;14.63;10.32;;;;;;;;;;5049466;28;20402;-65
2023/01/07 05:48:44;;;;;;;17.10;10.45;;;;;;;;;;5049229;28;20102;-65
2023/01/07 05:51:10;;;;;;;16.30;9.82;;;;;;;;;;5049325;28;20071;-65
2023/01/07 05:53:36;;;;;;;12.90;10.02;;;;;;;;;;5067260;28;20098;-65
2023/01/07 05:56:02;;;;;;;17.88;10.65;;;;;;;;;;5049542;28;20399;-65
2023/01/07 05:58:28;;;;;;;15.35;10.15;;;;;;;;;;5067458;28;20072;-65
2023/01/07 06:00:55;;;;;;;13.98;9.82;;;;;;;;;;5049497;28;20079;-65
2023/01/07 06:03:21;;;;;;;16.83;10.00;;;;;;;;;;5067434;28;20136;-66
2023/01/07 06:05:47;;;;;;;14.07;9.70;;;;;;;;;;5067281;28;20046;-65
2023/01/07 06:08:14;;;;;;;15.45;10.10;;;10.90;99.90;;;;;;5045635;28;20041;-65
2023/01/07 06:10:41;;;;;;;12.93;8.52;;;;;;;;;;5065033;28;20098;-66
2023/01/07 06:13:07;;;;;;;15.77;9.68;;;;;;;;;;5066993;28;20041;-65
2023/01/07 06:15:33;;;;;;;16.65;10.13;;;;;;;;;;5049108;28;20445;-64
2023/01/07 06:17:59;;;;;;;13.85;8.93;;;;;;;;;;5067042;28;20044;-65
2023/01/07 06:20:24;;;;;;;12.18;9.05;;;10.70;99.90;;;;;;5066815;28;20474;-65
2023/01/07 06:22:50;;;;;;;15.32;8.95;;;;;;;;;;5048737;28;20039;-66
2023/01/07 06:25:17;;;;;;;13.43;8.68;;;;;;;;;;5049023;28;20048;-66
2023/01/07 06:27:43;;;;;;;13.45;9.32;;;;;;;;;;5066963;28;20044;-65
2023/01/07 06:30:10;;;;;;;14.98;9.05;;;10.60;99.90;;;;;;5066839;28;20070;-65
2023/01/07 06:32:41;;;;;;;13.13;8.77;;;10.90;99.90;;;;;;5066981;28;20040;-64
2023/01/07 06:35:08;;;;;;;12.25;8.60;;;10.90;99.90;;;;;;5066812;28;20435;-65
2023/01/07 06:37:34;;;;;;;12.57;9.02;;;;;;;;;;5055878;28;20136;-65
2023/01/07 06:40:00;;;;;;;13.50;9.52;;;;;;;;;;5063845;28;20048;-65
2023/01/07 06:42:26;;;;;;;10.95;8.75;;;;;;;;;;5048796;28;20143;-65
2023/01/07 06:44:52;;;;;;;17.40;9.80;;;;;;;;;;5066703;28;20051;-65
2023/01/07 06:47:18;;;;;;;13.43;8.70;;;;;;;;;;5066846;28;20033;-65
2023/01/07 06:49:44;;;;;;;11.05;8.90;;;;;;;;;;5066962;28;20074;-65
2023/01/07 06:52:10;;;;;;;13.98;8.02;;;10.70;99.90;;;;;;5047980;28;20052;-65
2023/01/07 06:54:36;;;;;;;12.52;8.98;;;;;;;;;;5048367;28;20056;-65
2023/01/07 06:57:02;;;;;;;12.85;8.73;;;;;;;;;;5066598;28;20058;-65
2023/01/07 06:59:28;;;;;;;12.55;8.43;;;;;;;;;;5048486;28;20037;-65
2023/01/07 07:01:54;;;;;;;10.27;7.75;;;;;;;;;;5064607;28;20043;-65
2023/01/07 07:04:20;;;;;;;15.63;8.23;;;;;;;;;;5028496;28;20549;-65
2023/01/07 07:06:45;;;;;;;15.18;8.77;;;10.80;99.90;;;;;;5053276;28;20040;-65
2023/01/07 07:09:11;;;;;;;12.35;7.97;;;;;;;;;;5035048;28;20538;-65
2023/01/07 07:11:37;;;;;;;10.27;7.50;;;;;;;;;;5059600;28;20125;-65
2023/01/07 07:14:03;;;;;;;16.85;8.25;;;;;;;;;;5030533;28;20049;-65
2023/01/07 07:16:29;;;;;;;13.25;7.82;;;;;;;;;;5034545;28;20076;-65
2023/01/07 07:18:55;;;;;;;12.23;7.63;;;;;;;;;;5028220;28;20041;-65
2023/01/07 07:21:21;;;;;;;9.25;6.68;;;10.90;99.90;;;;;;5038835;28;20475;-65
2023/01/07 07:23:47;;;;;;;11.13;6.57;;;;;;;;;;5046383;28;20063;-65
2023/01/07 07:26:13;;;;;;;12.52;6.38;;;;;;;;;;5047974;28;20128;-65
2023/01/07 07:28:41;;;;;;;11.13;6.20;;;;;;;;;;5044374;28;20093;-65
2023/01/07 07:31:07;;;;;;;11.18;6.57;;;;;;;;;;5057730;28;20472;-65
2023/01/07 07:33:33;;;;;;;8.70;6.55;;;;;;;;;;5028302;28;20052;-66
2023/01/07 07:36:00;;;;;;;10.52;6.38;;;;;;;;;;5040479;28;20102;-66
2023/01/07 07:38:26;;;;;;;11.55;6.72;;;;;;;;;;5048449;28;20451;-65
2023/01/07 07:40:52;;;;;;;9.98;6.18;;;;;;;;;;5057356;28;20041;-65
2023/01/07 07:43:18;;;;;;;9.80;6.78;;;;;;;;;;5066769;28;20120;-66
2023/01/07 07:45:44;;;;;;;9.13;6.97;;;;;;;;;;5048026;28;20041;-67
2023/01/07 07:48:11;;;;;;;7.57;6.28;;;;;;;;;;5066761;28;20481;-65
2023/01/07 07:50:37;;;;;;;12.02;6.60;;;;;;;;;;5066607;28;20094;-66
2023/01/07 07:53:04;;;;;;;8.73;6.15;;;;;;;;;;5066563;28;20043;-66
2023/01/07 07:55:30;;;;;;;9.27;5.55;;;10.50;99.90;;;;;;5066740;28;20661;-66
2023/01/07 07:57:59;;;;;;;11.52;6.82;;;;;;;;;;5066535;28;20155;-66
2023/01/07 08:00:28;;;;;;;9.25;5.45;;;10.40;99.90;;;;;;5047832;28;20037;-65
2023/01/07 08:02:58;;;;;;;8.23;5.78;;;;;;;;;;5045126;28;20044;-66
2023/01/07 08:05:24;;;;;;;7.03;5.13;;;;;;;;;;5042526;28;20134;-66
2023/01/07 08:07:50;;;;;;;7.28;5.90;;;;;;;;;;5040303;28;20048;-65
2023/01/07 08:10:16;;;;;;;8.30;5.35;;;;;;;;;;5042423;28;20044;-65
2023/01/07 08:12:42;;;;;;;8.20;6.25;;;10.20;99.90;;;;;;5049306;28;20075;-66
2023/01/07 08:15:08;;;;;;;8.35;5.22;;;10.30;99.90;;;;;;5031180;28;20127;-66
2023/01/07 08:17:35;;;;;;;8.50;6.07;;;;;;;;;;5050477;28;20036;-67
2023/01/07 08:20:01;;;;;;;9.85;5.40;;;;;;;;;;5051499;28;20048;-67
2023/01/07 08:22:27;;;;;;;6.20;4.72;;;;;;;;;;5069291;28;20036;-68
2023/01/07 08:24:53;;;;;;;8.80;5.55;;;;;;;;;;5069281;28;20516;-67
2023/01/07 08:27:19;;;;;;;8.52;5.18;;;;;;;;;;5051227;28;20044;-67
2023/01/07 08:29:45;;;;;;;8.63;4.55;;;;;;;;;;5069571;28;20049;-67
2023/01/07 08:32:11;;;;;;;5.75;4.68;;;;;;;;;;5051004;28;20132;-65
2023/01/07 08:34:38;;;;;;;8.52;4.70;;;;;;;;;;5050781;28;20041;-66
2023/01/07 08:37:04;;;;;;;8.38;4.68;;;;;;;;;;5069199;28;20044;-66
2023/01/07 08:39:29;;;;;;;6.22;4.05;;;;;;;;;;5051100;28;20044;-66
2023/01/07 08:41:55;;;;;;;8.25;4.47;;;;;;;;;;5068959;28;20036;-67
2023/01/07 08:44:21;;;;;;;6.82;4.88;;;10.50;99.90;;;;;;5069116;28;20040;-66
2023/01/07 08:46:47;;;;;;;6.72;4.43;;;;;;;;;;5068841;28;20101;-66
2023/01/07 08:49:13;;;;;;;9.10;4.38;;;;;;;;;;5069005;28;20045;-66
2023/01/07 08:51:39;;;;;;;6.90;4.68;;;;;;;;;;5068756;28;20056;-67
2023/01/07 08:54:05;;;;;;;7.03;4.55;;;;;;;;;;5068941;28;20110;-66
2023/01/07 08:56:32;;;;;;;7.00;3.20;;;;;;;;;;5068783;28;20036;-67
2023/01/07 08:58:58;;;;;;;4.68;4.15;;;;;;;;;;5050532;28;20050;-67
2023/01/07 09:01:24;;;;;;;6.30;3.88;;;;;;;;;;5050417;28;20121;-66
2023/01/07 09:03:50;;;;;;;7.63;4.13;;;11.00;99.90;;;;;;5068765;28;20094;-67
2023/01/07 09:06:16;;;;;;;5.85;4.72;;;;;;;;;;5050471;28;20051;-66
2023/01/07 09:08:42;;;;;;;5.00;3.55;;;;;;;;;;5050615;28;20044;-66
2023/01/07 09:11:08;;;;;;;8.40;3.75;;;;;;;;;;5050267;28;20506;-67
2023/01/07 09:13:34;;;;;;;4.97;3.92;;;;;;;;;;5068308;28;20067;-66
2023/01/07 09:16:00;;;;;;;4.47;3.30;;;;;;;;;;5067518;28;20539;-66
2023/01/07 09:18:26;;;;;;;3.47;2.85;;;;;;;;;;5068221;28;20043;-67
2023/01/07 09:20:52;;;;;;;6.53;3.25;;;10.90;99.90;;;;;;5068174;28;20037;-66
2023/01/07 09:23:17;;;;;;;3.72;3.00;;;11.00;99.90;;;;;;5068432;28;20048;-66
2023/01/07 09:25:44;;;;;;;3.90;2.88;;;;;;;;;;5068266;28;20047;-66
2023/01/07 09:28:09;;;;;;;4.35;3.05;;;;;;;;;;5068420;28;20642;-66
2023/01/07 09:30:36;;;;;;;5.68;2.65;;;11.00;99.90;;;;;;5068219;28;20056;-66
2023/01/07 09:33:03;;;;;;;3.58;2.80;;;;;;;;;;5068193;28;20089;-67
2023/01/07 09:35:29;;;;;;;7.63;3.30;;;;;;;;;;5050415;28;20048;-67
2023/01/07 09:37:55;;;;;;;6.32;3.35;;;;;;;;;;5068401;28;20044;-69
2023/01/07 09:40:24;;;;;;;6.43;3.45;;;;;;;;;;5050260;28;20040;-66
2023/01/07 09:43:11;;;;;;;5.43;2.72;;;11.20;99.90;;;;;;5068214;28;20040;-67
2023/01/07 09:45:45;;;;;;;4.53;3.40;;;11.20;99.90;;;;;;5055700;28;20032;-67
2023/01/07 09:48:20;;;;;;;6.93;2.95;;;;;;;;;;5068300;28;20452;-67
2023/01/07 09:50:46;;;;;;;;;;;;;;;;;;5050688;28;20122;-66
2023/01/07 09:53:14;;;;;;;6.43;3.97;;;;;;;;;;5049698;28;19967;-67
2023/01/07 09:55:41;;;;;;;4.75;2.67;;;11.00;99.90;;;;;;5054114;28;20041;-66
2023/01/07 09:58:12;;;;;;;4.32;3.08;;;;;;;;;;5068348;28;20283;-67
2023/01/07 10:00:40;;;;;;;4.40;2.75;;;;;;;;;;5049561;28;20123;-66
2023/01/07 10:03:12;;;;;;;5.68;2.95;;;;;;;;;;5049935;28;20044;-66
2023/01/07 10:05:48;;;;;;;7.15;3.17;;;11.00;99.90;;;;;;5049622;28;20403;-66
2023/01/07 10:08:17;;;;;;;3.10;2.30;;;;;;;;;;5068123;28;20043;-65
2023/01/07 10:10:52;;;;;;;4.28;3.13;;;;;;;;;;5049319;28;20044;-67
2023/01/07 10:13:37;;;;;;;4.03;2.85;;;;;;;;;;5049513;28;20402;-67
2023/01/07 10:16:09;;;;;;;4.25;2.90;;;;;;;;;;5035635;28;20063;-67
2023/01/07 10:18:45;;;;;;;3.53;2.55;;;11.00;99.90;;;;;;5036233;28;20045;-68
2023/01/07 10:21:11;;;;;;;6.57;2.88;;;;;;;;;;5064589;28;20036;-67
2023/01/07 10:23:41;;;;;;;4.60;2.75;;;11.10;99.90;;;;;;5067157;28;20493;-68
2023/01/07 10:26:26;;;;;;;4.28;2.30;;;10.90;99.90;;;;;;5066346;28;20055;-67
2023/01/07 10:29:13;;;;;;;3.50;2.25;;;;;;;;;;5048634;28;20091;-67
2023/01/07 10:31:39;;;;;;;4.28;2.25;;;11.20;99.90;;;;;;5055064;28;20048;-67
2023/01/07 10:34:12;;;;;;;3.25;2.45;;;;;;;;;;5048842;28;20106;-67
2023/01/07 10:36:43;;;;;;;3.42;2.53;;;11.30;99.90;;;;;;5066794;28;20041;-67
2023/01/07 10:39:25;;;;;;;3.75;2.30;;;;;;;;;;5032479;28;20048;-67
2023/01/07 10:42:11;;;;;;;5.63;2.47;;;11.50;99.90;;;;;;5048450;28;20044;-68
2023/01/07 10:44:52;;;;;;;2.53;2.22;;;11.60;99.90;;;;;;5066956;28;20040;-67
2023/01/07 10:48:07;;;;;;;5.78;2.53;;;11.40;99.90;;;;;;5036505;28;20434;-67
2023/01/07 10:50:48;;;;;;;5.28;2.22;;;;;;;;;;5028136;28;20048;-68
2023/01/07 10:53:29;;;;;;;3.03;2.45;;;11.40;99.90;;;;;;5066755;28;20053;-67
2023/01/07 10:56:13;;;;;;;4.78;2.35;;;11.40;99.90;;;;;;5049288;28;20114;-67
2023/01/07 10:58:41;;;;;;;3.22;1.92;;;;;;;;;;5045712;28;20522;-67
2023/01/07 11:01:09;;;;;;;2.88;2.08;;;11.60;99.90;;;;;;5055855;28;20040;-67
2023/01/07 11:03:38;;;;;;;2.75;1.80;;;;;;;;;;5066582;28;20080;-67
2023/01/07 11:06:07;;;;;;;2.42;2.15;;;;;;;;;;5066625;28;20434;-67
2023/01/07 11:08:37;;;;;;;3.40;2.33;;;;;;;;;;5048773;28;20036;-67
2023/01/07 11:11:03;;;;;;;2.25;1.75;;;11.80;99.90;;;;;;5066662;28;20033;-67
2023/01/07 11:13:31;;;;;;;3.38;2.22;;;;;;;;;;5066678;28;20094;-66
2023/01/07 11:16:06;;;;;;;4.22;2.03;;;;;;;;;;5049205;28;20037;-66
2023/01/07 11:18:35;;;;;;;2.03;1.80;;;;;;;;;;5049087;28;20067;-67
2023/01/07 11:21:01;;;;;;;2.17;1.38;;;;;;;;;;5048354;28;20083;-66
2023/01/07 11:23:35;;;;;;;3.58;1.73;;;;;;;;;;5048660;28;20102;-66
2023/01/07 11:26:16;;;;;;;3.78;2.00;;;;;;;;;;5048402;28;20056;-66
2023/01/07 11:28:50;;;;;;;2.75;2.08;;;;;;;;;;5048482;28;20048;-66
2023/01/07 11:31:16;;;;;;;3.70;2.42;;;;;;;;;;5048094;28;20114;-66
2023/01/07 11:33:47;;;;;;;2.90;2.08;;;11.50;99.90;;;;;;5020026;28;20091;-66
2023/01/07 11:36:15;;;;;;;2.35;1.50;;;;;;;;;;5046465;28;20051;-66
2023/01/07 11:38:42;;;;;;;3.20;2.33;;;;;;;;;;5054693;28;20045;-68
2023/01/07 11:41:19;;;;;;;3.88;1.85;;;;;;;;;;5050299;28;20040;-67
2023/01/07 11:43:50;;;;;;;2.92;2.22;;;;;;;;;;5050904;28;20048;-67
2023/01/07 11:46:18;;;;;;;2.40;2.10;;;;;;;;;;5051156;28;20048;-67
2023/01/07 11:48:51;;;;;;;2.72;2.10;;;;;;;;;;5069162;28;20089;-68
2023/01/07 11:51:18;;;;;;;3.88;1.83;;;;;;;;;;5067468;28;20082;-68
2023/01/07 11:53:50;;;;;;;3.53;2.15;;;;;;;;;;5065227;28;20521;-67
2023/01/07 11:56:18;;;;;;;1.77;1.63;;;11.50;99.90;;;;;;5067974;28;20082;-68
2023/01/07 11:58:45;;;;;;;2.85;1.98;;;;;;;;;;5067169;28;20086;-67
2023/01/07 12:01:16;;;;;;;3.40;1.75;;;11.70;99.90;;;;;;5069058;28;20028;-68
2023/01/07 12:03:54;;;;;;;2.75;1.92;;;;;;;;;;5050451;28;20585;-68
2023/01/07 12:06:29;;;;;;;2.35;1.67;;;11.90;99.90;;;;;;5051410;28;20268;-69
2023/01/07 12:09:14;;;;;;;3.57;1.97;;;12.10;99.90;;;;;;5046412;28;20045;-68
2023/01/07 12:11:41;;;;;;;3.30;1.85;;;;;;;;;;5067364;28;20097;-67
2023/01/07 12:14:15;;;;;;;2.72;1.70;;;12.50;99.90;;;;;;5047714;28;20158;-68
2023/01/07 12:16:43;;;;;;;2.60;2.00;;;12.40;99.90;;;;;;5068439;28;20040;-68
2023/01/07 12:19:30;;;;;;;3.10;1.65;;;;;;;;;;5051505;28;20112;-68
2023/01/07 12:22:05;;;;;;;3.03;1.33;;;;;;;;;;5031581;28;20048;-68
2023/01/07 12:24:45;;;;;;;2.55;1.38;;;;;;;;;;5043895;28;20127;-67
2023/01/07 12:27:21;;;;;;;2.42;1.45;;;;;;;;;;5031499;28;20559;-67
2023/01/07 12:29:47;;;;;;;4.53;1.40;;;;;;;;;;5031082;28;20049;-68
2023/01/07 12:32:32;;;;;;;1.63;1.50;;;;;;;;;;5060811;28;20824;-68
2023/01/07 12:35:13;;;;;;;1.70;1.30;;;12.40;99.90;;;;;;5018394;28;20066;-68
2023/01/07 12:37:57;;;;;;;1.88;1.23;;;;;;;;;;5051015;28;20135;-67
2023/01/07 12:40:35;;;;;;;4.97;1.73;;;12.90;99.90;;;;;;5037422;28;20040;-67
2023/01/07 12:43:11;;;;;;;4.07;1.30;;;;;;;;;;5050544;28;20045;-68
2023/01/07 12:45:42;;;;;;;2.08;1.33;;;;;;;;;;5014519;28;20045;-67
2023/01/07 12:48:13;;;;;;;1.50;1.15;;;;;;;;;;5044808;28;20048;-68
2023/01/07 12:50:45;;;;;;;1.98;1.30;;;;;;;;;;5049641;28;20494;-65
2023/01/07 12:53:10;;;;;;;2.78;1.00;;;;;;;;;;5049932;28;20106;-65
2023/01/07 12:55:43;;;;;;;2.00;0.90;;;13.00;99.90;;;;;;5047896;28;20449;-65
2023/01/07 12:58:24;;;;;;;2.40;1.50;;;12.80;99.90;;;;;;5048160;28;20491;-65
2023/01/07 13:00:54;;;;;;;2.75;1.20;;;;;;;;;;5052649;28;20044;-65
2023/01/07 13:03:32;;;;;;;1.95;1.20;;;;;;;;;;5066281;28;20528;-65
2023/01/07 13:06:05;;;;;;;2.75;1.23;;;12.70;99.90;;;;;;5052524;28;20036;-65
2023/01/07 13:08:37;;;;;;;2.13;1.25;;;;;;;;;;5047870;28;20127;-65
2023/01/07 13:12:41;;;;;;;2.55;1.50;;;;;;;;;;5052324;28;20534;-65
2023/01/07 13:14:18;;;;;;;1.63;1.25;;;;;;;;;;5065643;28;20869;-64
2023/01/07 13:16:44;;;;;;;2.67;1.33;;;;;;;;;;5047827;28;20047;-65
2023/01/07 13:19:10;;;;;;;2.40;1.48;;;;;;;;;;5066084;28;20102;-65
2023/01/07 13:21:36;;;;;;;1.73;1.17;;;;;;;;;;5047787;28;20044;-66
2023/01/07 13:24:43;;;;;;;1.65;1.40;;;12.50;99.90;;;;;;5045913;28;20055;-65
2023/01/07 13:27:36;;;;;;;3.30;1.40;;;;;;;;;;5044759;28;20048;-65
2023/01/07 13:30:07;;;;;;;5.30;2.28;;;;;;;;;;5043185;28;20048;-66
2023/01/07 13:32:44;;;;;;;1.90;1.65;;;;;;;;;;5045965;28;20418;-65
2023/01/07 13:35:26;;;;;;;1.85;1.40;;;11.90;99.90;;;;;;5045618;28;20447;-65
2023/01/07 13:38:03;;;;;;;1.95;1.10;;;12.00;99.90;;;;;;5044296;28;20418;-65
2023/01/07 13:40:42;;;;;;;3.08;1.23;;;;;;;;;;5044292;28;20048;-65
2023/01/07 13:43:35;;;;;;;1.33;1.08;;;12.00;99.90;;;;;;5044153;28;20123;-65
2023/01/07 13:46:17;;;;;;;2.63;1.40;;;;;;;;;;5045266;28;20053;-64
2023/01/07 13:48:50;;;;;;;1.55;1.23;;;;;;;;;;5044409;28;20033;-64
2023/01/07 13:51:22;;;;;;;1.67;1.33;;;;;;;;;;5043452;28;20487;-65
2023/01/07 13:53:48;;;;;;;3.97;1.60;;;;;;;;;;5042190;28;20044;-65
2023/01/07 13:56:17;;;;;;;2.22;1.25;;;;;;;;;;5045493;28;20510;-65
2023/01/07 13:58:47;;;;;;;2.47;1.42;;;;;;;;;;5044878;28;20125;-65
2023/01/07 14:01:17;;;;;;;2.65;1.70;;;;;;;;;;5046071;28;20047;-65
2023/01/07 14:03:57;;;;;;;3.05;1.25;;;11.80;99.90;;;;;;5046334;28;20037;-65
2023/01/07 14:06:26;;;;;;;1.88;1.33;;;;;;;;;;5043058;28;20090;-65
2023/01/07 14:08:54;;;;;;;3.30;1.58;;;;;;;;;;5042653;28;20037;-65
2023/01/07 14:11:41;;;;;;;1.60;1.30;;;;;;;;;;5045289;28;20037;-65
2023/01/07 14:14:22;;;;;;;2.30;1.58;;;;;;;;;;5042037;28;20053;-65
2023/01/07 14:16:57;;;;;;;2.25;1.33;;;;;;;;;;5044030;28;20033;-65
2023/01/07 14:19:23;;;;;;;;;;;;;;;;;;5045708;28;20070;-64
2023/01/07 14:22:08;;;;;;;3.25;1.85;;;;;;;;;;5044836;28;20469;-65